Estherwood, Louisiana
Current Conditions -  °F | °C
As of 10:35 PM on Wednesday 22 Oct 2014 (Local Time) from K3R7 Reporting Station
Clear Clear  
Wind Chill: 61°   Ceiling: Unl
Heat Index: 61°   Visibility: 10mi
Dew Point: 54°   Wind: 5mph
Humidity: 77%   Direction: 20°NNE
Pressure: 30.1"   Gusts: NA
Location:  30.18°N, 92.46°W
Report Text: K3R7 230335Z AUTO 02004KT 10SM CLR 16/12 A3010 RMK AO2 T01610121
Loading
Personal Weather Stations






























Interactive Weather Map
Tropical Storm Tracking
New forecast layout! Learn more

10-Day Weather Forecast

Advertisements
Track Severe Weather on mobile